Echo Valley, Pennsylvania
Current Conditions -  °F | °C
As of 1:58 AM on Monday 24 Nov 2014 (Local Time) from KMUI Reporting Station
Moderate Rain Moderate Rain  
Wind Chill:   Ceiling: 400
Heat Index:   Visibility: 3mi
Dew Point:   Wind: 9mph
Humidity: 100%   Direction: 60°ENE
Pressure: 29.69"   Gusts: NA
Location:  40.6079°N, 76.4334°W
Report Text: KMUI 240658Z AUTO 06008KT 3SM RA BR OVC004 09/09 A2969 RMK AO2 PRESFR SLP057 P0020 $
Loading
Personal Weather Stations






























Interactive Weather Map New forecast layout! Learn more

10-Day Weather Forecast

Advertisements
Track Severe Weather on mobile